Disclaimer

Please do not use the information listed here in-flight or in-navigation, as they are not provided to us by the airports but are provided by volunteers, so they might be outdated.

Search


Regions


Airport information page

Radio informations:
TORONTO TRML - 133.4 MHz

Airport informations:
Latitude: 43° 55' 22.00" N
Longitude: 078° 53' 42.00" W
Elevation: 459 feet - 140 meters
Operating hours: Remarks
Operating agency: Civil government, landing fees and diplomatic clearance may be required
Timezone: UTC-5(-4DT) - Second Sunday in March at 0200 to first Sunday in November at 0200 local time (Exception Arizona and that portion of Indiana in the Eastern Time Zone)
Fuel: Jet A1, without icing nhibitor.

80/87 octane gasoline, leaded, MIL-L-5572F (RED)

100/130 MIL Spec, low lead, aviation gasoline (BLUE)

Runway information:
04/22 - 2670 x 100 feet< - >814 x 30 meters
12/30 - 4000 x 100 feet< - >1219 x 30 meters

Recent METARs:
CYOO 181600Z AUTO 08002KT 9SM OVC050 00/M04 A3028 RMK SLP262
CYOO 181700Z AUTO 00000KT 9SM OVC046 01/M04 A3025 RMK SLP254
CYOO 181700Z AUTO 00000KT 9SM OVC046 01/M04 A3025 RMK SLP254

Airport on the map: